Terminal Aerodrome Forecast
Issued by NWS Topeka, KS

Home | Current Version | Previous Version | Text Only | Print | Product List | Glossary Off
Versions: 1 2 3 4 5 6 7 8 9 10 11 12 13 14 15 16 17 18 19

000
FTUS43 KTOP 071700
TAFTOP
TAF
KTOP 071727Z 0718/0818 16008KT P6SM FEW050 SCT100
     FM080300 14013KT P6SM -TSRA BKN050CB
     FM080600 35013KT 5SM -SHRA VCTS BKN035CB
     FM081000 35007KT P6SM SCT030 BKN120=

USA.gov is the U.S. government's official web portal to all federal, state and local government web resources and services.